createdAt,value
2018-09-15T00:00:02.064Z,21.13
2018-09-15T00:01:01.962Z,21.14
2018-09-15T00:02:02.018Z,21.14
2018-09-15T00:03:01.976Z,21.13
2018-09-15T00:04:02.155Z,21.13
2018-09-15T00:05:01.927Z,21.14
2018-09-15T00:06:01.807Z,21.14
2018-09-15T00:07:01.877Z,21.14
2018-09-15T00:08:02.159Z,21.14
2018-09-15T00:09:02.140Z,21.13
2018-09-15T00:10:02.046Z,21.13
2018-09-15T00:11:02.025Z,21.13
2018-09-15T00:12:01.989Z,21.13
2018-09-15T00:13:03.737Z,21.13
2018-09-15T00:14:02.199Z,21.13
2018-09-15T00:15:02.092Z,21.13
2018-09-15T00:16:04.531Z,21.13
2018-09-15T00:17:04.595Z,21.13
2018-09-15T00:18:04.360Z,21.13
2018-09-15T00:19:02.443Z,21.13
2018-09-15T00:20:02.605Z,21.13
2018-09-15T00:21:03.893Z,21.13
2018-09-15T00:22:04.119Z,21.13
2018-09-15T00:23:02.513Z,21.13
2018-09-15T00:24:04.910Z,21.13
2018-09-15T00:25:02.235Z,21.13
2018-09-15T00:26:04.453Z,21.13
2018-09-15T00:27:02.371Z,21.12
2018-09-15T00:28:04.580Z,21.13
2018-09-15T00:29:02.374Z,21.13
2018-09-15T00:30:04.534Z,21.13
2018-09-15T00:31:02.101Z,21.13
2018-09-15T00:32:02.238Z,21.13
2018-09-15T00:33:02.446Z,21.12
2018-09-15T00:34:02.132Z,21.13
2018-09-15T00:35:02.453Z,21.12
2018-09-15T00:36:02.228Z,21.12
2018-09-15T00:37:04.641Z,21.12
2018-09-15T00:38:04.668Z,21.12
2018-09-15T00:39:05.146Z,21.12
2018-09-15T00:40:02.111Z,21.12
2018-09-15T00:41:02.825Z,21.11
2018-09-15T00:42:04.316Z,21.11
2018-09-15T00:43:04.359Z,21.11
2018-09-15T00:44:02.099Z,21.12
2018-09-15T00:45:02.837Z,21.11
2018-09-15T00:46:04.702Z,21.12
2018-09-15T00:47:02.540Z,21.13
2018-09-15T00:48:02.426Z,21.12
2018-09-15T00:49:04.553Z,21.11
2018-09-15T00:50:04.727Z,21.12
2018-09-15T00:51:02.460Z,21.12
2018-09-15T00:52:03.875Z,21.11
2018-09-15T00:53:02.437Z,21.12
2018-09-15T00:54:04.682Z,21.12
2018-09-15T00:55:02.876Z,21.12
2018-09-15T00:56:04.482Z,21.12
2018-09-15T00:57:04.624Z,21.11
2018-09-15T00:58:04.423Z,21.11
2018-09-15T00:59:02.480Z,21.12
2018-09-15T01:00:02.164Z,21.1
2018-09-15T01:01:04.473Z,21.1
2018-09-15T01:02:04.652Z,21.1
2018-09-15T01:03:02.427Z,21.1
2018-09-15T01:04:04.741Z,21.1
2018-09-15T01:05:02.430Z,21.1
2018-09-15T01:06:04.663Z,21.1
2018-09-15T01:07:02.817Z,21.1
2018-09-15T01:08:03.865Z,21.1
2018-09-15T01:09:04.406Z,21.09
2018-09-15T01:10:04.548Z,21.1
2018-09-15T01:11:02.483Z,21.1
2018-09-15T01:12:02.157Z,21.1
2018-09-15T01:13:04.507Z,21.11
2018-09-15T01:14:02.908Z,21.1
2018-09-15T01:15:02.662Z,21.1
2018-09-15T01:16:01.991Z,21.1
2018-09-15T01:17:01.980Z,21.11
2018-09-15T01:18:02.448Z,21.1
2018-09-15T01:19:01.845Z,21.11
2018-09-15T01:20:02.629Z,21.1
2018-09-15T01:21:01.850Z,21.1
2018-09-15T01:22:02.179Z,21.1
2018-09-15T01:23:01.746Z,21.1
2018-09-15T01:24:02.135Z,21.1
2018-09-15T01:25:02.013Z,21.1
2018-09-15T01:26:02.743Z,21.1
2018-09-15T01:27:01.872Z,21.1
2018-09-15T01:28:01.948Z,21.1
2018-09-15T01:29:01.853Z,21.11
2018-09-15T01:30:02.072Z,21.11
2018-09-15T01:31:01.921Z,21.1
2018-09-15T01:32:01.851Z,21.1
2018-09-15T01:33:01.970Z,21.1
2018-09-15T01:34:02.009Z,21.1
2018-09-15T01:35:01.917Z,21.1
2018-09-15T01:36:02.025Z,21.09
2018-09-15T01:37:02.233Z,21.1
2018-09-15T01:38:01.823Z,21.1
2018-09-15T01:39:01.776Z,21.1
2018-09-15T01:40:02.047Z,21.1
2018-09-15T01:41:01.770Z,21.1
2018-09-15T01:42:02.347Z,21.1
2018-09-15T01:43:01.929Z,21.11
2018-09-15T01:44:01.981Z,21.1
2018-09-15T01:45:01.781Z,21.1
2018-09-15T01:46:01.917Z,21.11
2018-09-15T01:47:01.775Z,21.11
2018-09-15T01:48:02.177Z,21.1
2018-09-15T01:49:01.847Z,21.11
2018-09-15T01:50:01.932Z,21.1
2018-09-15T01:51:01.920Z,21.1
2018-09-15T01:52:01.989Z,21.1
2018-09-15T01:53:01.773Z,21.1
2018-09-15T01:54:02.028Z,21.11
2018-09-15T01:55:02.129Z,21.1
2018-09-15T01:56:02.076Z,21.1
2018-09-15T01:57:01.794Z,21.1
2018-09-15T01:58:01.906Z,21.1
2018-09-15T01:59:02.080Z,21.11
2018-09-15T02:00:02.044Z,21.1
2018-09-15T02:01:02.222Z,21.11
2018-09-15T02:02:01.989Z,21.11
2018-09-15T02:03:01.936Z,21.1
2018-09-15T02:04:01.858Z,21.11
2018-09-15T02:05:01.878Z,21.11
2018-09-15T02:06:01.959Z,21.1
2018-09-15T02:07:01.848Z,21.09
2018-09-15T02:08:02.094Z,21.1
2018-09-15T02:09:01.900Z,21.1
2018-09-15T02:10:01.961Z,21.1
2018-09-15T02:11:01.720Z,21.1
2018-09-15T02:12:01.872Z,21.1
2018-09-15T02:13:01.824Z,21.09
2018-09-15T02:14:02.004Z,21.09
2018-09-15T02:15:01.925Z,21.1
2018-09-15T02:16:01.913Z,21.09
2018-09-15T02:17:01.738Z,21.09
2018-09-15T02:18:01.872Z,21.09
2018-09-15T02:19:02.754Z,21.1
2018-09-15T02:20:01.904Z,21.1
2018-09-15T02:21:01.725Z,21.1
2018-09-15T02:22:02.198Z,21.09
2018-09-15T02:23:02.440Z,21.08
2018-09-15T02:24:01.886Z,21.09
2018-09-15T02:25:01.843Z,21.08
2018-09-15T02:26:01.951Z,21.08
2018-09-15T02:27:01.830Z,21.08
2018-09-15T02:28:01.903Z,21.08
2018-09-15T02:29:02.099Z,21.08
2018-09-15T02:30:02.044Z,21.08
2018-09-15T02:31:01.775Z,21.09
2018-09-15T02:32:01.898Z,21.08
2018-09-15T02:33:01.804Z,21.08
2018-09-15T02:34:01.968Z,21.09
2018-09-15T02:35:02.065Z,21.08
2018-09-15T02:36:02.160Z,21.08
2018-09-15T02:37:02.258Z,21.09
2018-09-15T02:38:02.355Z,21.08
2018-09-15T02:39:01.915Z,21.08
2018-09-15T02:40:01.998Z,21.08
2018-09-15T02:41:01.752Z,21.08
2018-09-15T02:42:01.946Z,21.07
2018-09-15T02:43:02.050Z,21.08
2018-09-15T02:44:02.328Z,21.08
2018-09-15T02:45:02.358Z,21.07
2018-09-15T02:46:01.972Z,21.08
2018-09-15T02:47:01.951Z,21.08
2018-09-15T02:48:02.186Z,21.08
2018-09-15T02:49:02.196Z,21.08
2018-09-15T02:50:02.038Z,21.08
2018-09-15T02:51:01.875Z,21.08
2018-09-15T02:52:02.347Z,21.09
2018-09-15T02:53:02.119Z,21.08
2018-09-15T02:54:02.053Z,21.08
2018-09-15T02:55:01.907Z,21.08
2018-09-15T02:56:02.234Z,21.08
2018-09-15T02:57:01.990Z,21.08
2018-09-15T02:58:02.214Z,21.08
2018-09-15T02:59:01.735Z,21.08
2018-09-15T03:00:02.089Z,21.07
2018-09-15T03:01:01.944Z,21.07
2018-09-15T03:02:02.309Z,21.07
2018-09-15T03:03:02.155Z,21.07
2018-09-15T03:04:02.039Z,21.07
2018-09-15T03:05:02.309Z,21.07
2018-09-15T03:06:02.282Z,21.07
2018-09-15T03:07:01.882Z,21.07
2018-09-15T03:08:02.015Z,21.07
2018-09-15T03:09:01.951Z,21.07
2018-09-15T03:10:02.460Z,21.07
2018-09-15T03:11:01.888Z,21.07
2018-09-15T03:12:02.166Z,21.07
2018-09-15T03:13:02.182Z,21.07
2018-09-15T03:14:02.388Z,21.07
2018-09-15T03:15:02.113Z,21.07
2018-09-15T03:16:01.768Z,21.07
2018-09-15T03:17:02.327Z,21.06
2018-09-15T03:18:02.128Z,21.06
2018-09-15T03:19:01.741Z,21.06
2018-09-15T03:20:01.948Z,21.06
2018-09-15T03:21:01.820Z,21.06
2018-09-15T03:22:01.900Z,21.06
2018-09-15T03:23:02.272Z,21.05
2018-09-15T03:24:01.928Z,21.05
2018-09-15T03:25:02.299Z,21.05
2018-09-15T03:26:02.046Z,21.05
2018-09-15T03:27:01.799Z,21.04
2018-09-15T03:28:02.001Z,21.04
2018-09-15T03:29:01.736Z,21.04
2018-09-15T03:30:01.835Z,21.04
2018-09-15T03:31:02.263Z,21.04
2018-09-15T03:32:01.911Z,21.04
2018-09-15T03:33:01.931Z,21.04
2018-09-15T03:34:01.924Z,21.04
2018-09-15T03:35:01.748Z,21.04
2018-09-15T03:36:01.826Z,21.04
2018-09-15T03:37:01.950Z,21.04
2018-09-15T03:38:01.949Z,21.04
2018-09-15T03:39:01.804Z,21.03
2018-09-15T03:40:01.972Z,21.04
2018-09-15T03:41:01.805Z,21.04
2018-09-15T03:42:03.069Z,21.04
2018-09-15T03:43:02.096Z,21.04
2018-09-15T03:44:02.194Z,21.04
2018-09-15T03:45:02.168Z,21.04
2018-09-15T03:46:02.299Z,21.03
2018-09-15T03:47:02.087Z,21.04
2018-09-15T03:48:02.276Z,21.03
2018-09-15T03:49:01.845Z,21.03
2018-09-15T03:50:02.015Z,21.03
2018-09-15T03:51:02.224Z,21.03
2018-09-15T03:52:01.963Z,21.03
2018-09-15T03:53:01.920Z,21.02
2018-09-15T03:54:01.868Z,21.02
2018-09-15T03:55:01.895Z,21.03
2018-09-15T03:56:02.063Z,21.03
2018-09-15T03:57:02.048Z,21.03
2018-09-15T03:58:02.123Z,21.03
2018-09-15T03:59:01.928Z,21.03
2018-09-15T04:00:02.682Z,21.03
2018-09-15T04:01:01.990Z,21.02
2018-09-15T04:02:01.844Z,21.02
2018-09-15T04:03:02.459Z,21.01
2018-09-15T04:04:01.953Z,21.02
2018-09-15T04:05:01.969Z,21.01
2018-09-15T04:06:02.089Z,21.02
2018-09-15T04:07:01.842Z,21.01
2018-09-15T04:08:02.042Z,21.01
2018-09-15T04:09:02.114Z,21.01
2018-09-15T04:10:01.852Z,21.01
2018-09-15T04:11:01.633Z,21.01
2018-09-15T04:12:01.764Z,21.01
2018-09-15T04:13:01.876Z,21.01
2018-09-15T04:14:01.916Z,21.01
2018-09-15T04:15:01.933Z,21.02
2018-09-15T04:16:02.041Z,21.02
2018-09-15T04:17:02.035Z,21.02
2018-09-15T04:18:02.031Z,21.01
2018-09-15T04:19:02.767Z,21.01
2018-09-15T04:20:02.032Z,21.02
2018-09-15T04:21:01.774Z,21.02
2018-09-15T04:22:01.804Z,21.01
2018-09-15T04:23:01.974Z,21.02
2018-09-15T04:24:01.992Z,21.03
2018-09-15T04:25:02.265Z,21.02
2018-09-15T04:26:01.930Z,21.02
2018-09-15T04:27:01.743Z,21.02
2018-09-15T04:28:01.904Z,21.02
2018-09-15T04:29:02.060Z,21.02
2018-09-15T04:30:02.132Z,21.02
2018-09-15T04:31:01.952Z,21.02
2018-09-15T04:32:02.230Z,21.02
2018-09-15T04:33:02.119Z,21.02
2018-09-15T04:34:01.923Z,21.01
2018-09-15T04:35:01.912Z,21.01
2018-09-15T04:36:02.053Z,21.01
2018-09-15T04:37:01.916Z,21.01
2018-09-15T04:38:02.227Z,21.01
2018-09-15T04:39:02.261Z,21.01
2018-09-15T04:40:01.952Z,21.02
2018-09-15T04:41:01.919Z,21.01
2018-09-15T04:42:02.062Z,21.01
2018-09-15T04:43:01.820Z,21.01
2018-09-15T04:44:01.968Z,21.01
2018-09-15T04:45:01.952Z,21.01
2018-09-15T04:46:02.002Z,21.01
2018-09-15T04:47:01.837Z,21.01
2018-09-15T04:48:01.823Z,21.01
2018-09-15T04:49:01.955Z,21.01
2018-09-15T04:50:01.942Z,21.01
2018-09-15T04:51:01.987Z,21.01
2018-09-15T04:52:01.904Z,21.01
2018-09-15T04:53:01.921Z,21.01
2018-09-15T04:54:01.845Z,21.01
2018-09-15T04:55:01.890Z,21.01
2018-09-15T04:56:01.971Z,21.01
2018-09-15T04:57:01.918Z,21.01
2018-09-15T04:58:01.983Z,21.01
2018-09-15T04:59:01.982Z,21.01
2018-09-15T05:00:02.085Z,21
2018-09-15T05:01:02.073Z,21
2018-09-15T05:02:01.959Z,21.01
2018-09-15T05:03:01.909Z,21
2018-09-15T05:04:01.830Z,21.01
2018-09-15T05:05:02.311Z,21.01
2018-09-15T05:06:01.962Z,21
2018-09-15T05:07:01.883Z,21
2018-09-15T05:08:02.174Z,21
2018-09-15T05:09:01.876Z,21
2018-09-15T05:10:01.976Z,21
2018-09-15T05:11:01.788Z,21
2018-09-15T05:12:02.055Z,21
2018-09-15T05:13:02.729Z,20.99
2018-09-15T05:14:01.865Z,20.99
2018-09-15T05:15:01.903Z,20.99
2018-09-15T05:16:01.859Z,20.99
2018-09-15T05:17:01.832Z,20.99
2018-09-15T05:18:02.168Z,21
2018-09-15T05:19:01.748Z,20.99
2018-09-15T05:20:02.370Z,20.99
2018-09-15T05:21:02.080Z,20.98
2018-09-15T05:22:01.887Z,20.99
2018-09-15T05:23:01.814Z,20.99
2018-09-15T05:24:01.832Z,20.98
2018-09-15T05:25:02.208Z,20.99
2018-09-15T05:26:01.921Z,20.98
2018-09-15T05:27:02.180Z,20.99
2018-09-15T05:28:01.796Z,20.99
2018-09-15T05:29:01.901Z,20.99
2018-09-15T05:30:02.215Z,20.99
2018-09-15T05:31:02.171Z,20.99
2018-09-15T05:32:01.942Z,20.99
2018-09-15T05:33:01.897Z,20.99
2018-09-15T05:34:01.920Z,20.98
2018-09-15T05:35:01.967Z,20.99
2018-09-15T05:36:02.154Z,20.98
2018-09-15T05:37:02.189Z,20.98
2018-09-15T05:38:01.832Z,20.98
2018-09-15T05:39:01.926Z,20.98
2018-09-15T05:40:03.019Z,20.98
2018-09-15T05:41:01.833Z,20.98
2018-09-15T05:42:01.924Z,20.98
2018-09-15T05:43:01.794Z,20.98
2018-09-15T05:44:01.815Z,20.98
2018-09-15T05:45:01.822Z,20.98
2018-09-15T05:46:02.063Z,20.98
2018-09-15T05:47:01.843Z,20.98
2018-09-15T05:48:01.857Z,20.98
2018-09-15T05:49:02.192Z,20.97
2018-09-15T05:50:01.945Z,20.98
2018-09-15T05:51:01.878Z,20.98
2018-09-15T05:52:02.116Z,20.98
2018-09-15T05:53:02.030Z,20.97
2018-09-15T05:54:01.967Z,20.97
2018-09-15T05:55:01.929Z,20.98
2018-09-15T05:56:02.179Z,20.98
2018-09-15T05:57:02.183Z,20.98
2018-09-15T05:58:02.020Z,20.98
2018-09-15T05:59:01.752Z,20.97
2018-09-15T06:00:01.966Z,20.96
2018-09-15T06:01:01.782Z,20.97
2018-09-15T06:02:01.991Z,20.97
2018-09-15T06:03:02.108Z,20.97
2018-09-15T06:04:02.009Z,20.97
2018-09-15T06:05:01.769Z,20.93
2018-09-15T06:06:02.167Z,20.77
2018-09-15T06:07:01.989Z,20.63
2018-09-15T06:08:01.917Z,20.55
2018-09-15T06:09:01.880Z,20.46
2018-09-15T06:10:01.891Z,20.41
2018-09-15T06:11:02.274Z,20.34
2018-09-15T06:12:02.036Z,20.29
2018-09-15T06:13:01.997Z,20.24
2018-09-15T06:14:02.091Z,20.22
2018-09-15T06:15:01.873Z,20.24
2018-09-15T06:16:01.755Z,20.28
2018-09-15T06:17:01.838Z,20.35
2018-09-15T06:18:01.921Z,20.39
2018-09-15T06:19:02.194Z,20.41
2018-09-15T06:20:02.006Z,20.44
2018-09-15T06:21:02.001Z,20.47
2018-09-15T06:22:01.899Z,20.49
2018-09-15T06:23:01.992Z,20.51
2018-09-15T06:24:01.827Z,20.54
2018-09-15T06:25:01.837Z,20.56
2018-09-15T06:26:01.868Z,20.58
2018-09-15T06:27:01.945Z,20.59
2018-09-15T06:28:01.806Z,20.59
2018-09-15T06:29:01.783Z,20.61
2018-09-15T06:30:02.185Z,20.62
2018-09-15T06:31:02.359Z,20.63
2018-09-15T06:32:02.087Z,20.65
2018-09-15T06:33:02.231Z,20.65
2018-09-15T06:34:01.903Z,20.66
2018-09-15T06:35:02.469Z,20.68
2018-09-15T06:36:02.014Z,20.68
2018-09-15T06:37:02.049Z,20.69
2018-09-15T06:38:01.712Z,20.7
2018-09-15T06:39:01.926Z,20.71
2018-09-15T06:40:01.943Z,20.71
2018-09-15T06:41:01.725Z,20.72
2018-09-15T06:42:01.951Z,20.73
2018-09-15T06:43:01.984Z,20.73
2018-09-15T06:44:01.798Z,20.73
2018-09-15T06:45:02.182Z,20.73
2018-09-15T06:46:02.018Z,20.74
2018-09-15T06:47:01.851Z,20.75
2018-09-15T06:48:01.891Z,20.75
2018-09-15T06:49:01.980Z,20.76
2018-09-15T06:50:01.828Z,20.77
2018-09-15T06:51:01.862Z,20.77
2018-09-15T06:52:01.979Z,20.77
2018-09-15T06:53:01.919Z,20.77
2018-09-15T06:54:01.876Z,20.77
2018-09-15T06:55:01.900Z,20.78
2018-09-15T06:56:01.700Z,20.79
2018-09-15T06:57:01.973Z,20.79
2018-09-15T06:58:01.803Z,20.8
2018-09-15T06:59:02.006Z,20.81
2018-09-15T07:00:01.969Z,20.8
2018-09-15T07:01:02.058Z,20.81
2018-09-15T07:02:01.810Z,20.8
2018-09-15T07:03:01.929Z,20.8
2018-09-15T07:04:01.786Z,20.81
2018-09-15T07:05:01.921Z,20.81
2018-09-15T07:06:01.915Z,20.81
2018-09-15T07:07:02.239Z,20.82
2018-09-15T07:08:01.848Z,20.82
2018-09-15T07:09:01.926Z,20.82
2018-09-15T07:10:02.016Z,20.83
2018-09-15T07:11:01.815Z,20.83
2018-09-15T07:12:01.820Z,20.83
2018-09-15T07:13:02.423Z,20.83
2018-09-15T07:14:02.118Z,20.83
2018-09-15T07:15:01.955Z,20.83
2018-09-15T07:16:02.025Z,20.83
2018-09-15T07:17:02.216Z,20.83
2018-09-15T07:18:02.056Z,20.83
2018-09-15T07:19:01.822Z,20.83
2018-09-15T07:20:02.251Z,20.83
2018-09-15T07:21:01.937Z,20.83
2018-09-15T07:22:01.921Z,20.83
2018-09-15T07:23:02.119Z,20.83
2018-09-15T07:24:01.893Z,20.83
2018-09-15T07:25:01.934Z,20.83
2018-09-15T07:26:02.544Z,20.83
2018-09-15T07:27:01.861Z,20.83
2018-09-15T07:28:01.930Z,20.84
2018-09-15T07:29:02.126Z,20.83
2018-09-15T07:30:01.968Z,20.84
2018-09-15T07:31:01.873Z,20.84
2018-09-15T07:32:02.074Z,20.84
2018-09-15T07:33:01.837Z,20.83
2018-09-15T07:34:01.835Z,20.82
2018-09-15T07:35:01.821Z,20.83
2018-09-15T07:36:01.917Z,20.82
2018-09-15T07:37:01.690Z,20.82
2018-09-15T07:38:02.055Z,20.82
2018-09-15T07:39:02.180Z,20.83
2018-09-15T07:40:01.988Z,20.83
2018-09-15T07:41:01.873Z,20.83
2018-09-15T07:42:01.845Z,20.83
2018-09-15T07:43:01.896Z,20.84
2018-09-15T07:44:02.166Z,20.84
2018-09-15T07:45:02.095Z,20.85
2018-09-15T07:46:02.045Z,20.84
2018-09-15T07:47:02.118Z,20.85
2018-09-15T07:48:01.835Z,20.85
2018-09-15T07:49:02.037Z,20.86
2018-09-15T07:50:01.704Z,20.88
2018-09-15T07:51:01.890Z,20.87
2018-09-15T07:52:01.994Z,20.88
2018-09-15T07:53:02.247Z,20.87
2018-09-15T07:54:01.839Z,20.87
2018-09-15T07:55:01.900Z,20.86
2018-09-15T07:56:01.891Z,20.86
2018-09-15T07:57:02.061Z,20.86
2018-09-15T07:58:03.122Z,20.86
2018-09-15T07:59:01.811Z,20.87
2018-09-15T08:00:01.845Z,20.87
2018-09-15T08:01:01.866Z,20.86
2018-09-15T08:02:02.385Z,20.84
2018-09-15T08:03:01.739Z,20.8
2018-09-15T08:04:01.801Z,20.73
2018-09-15T08:05:01.916Z,20.65
2018-09-15T08:06:01.961Z,20.64
2018-09-15T08:07:01.731Z,20.6
2018-09-15T08:08:01.895Z,20.57
2018-09-15T08:09:01.836Z,20.52
2018-09-15T08:10:02.014Z,20.53
2018-09-15T08:11:02.351Z,20.55
2018-09-15T08:12:01.980Z,20.53
2018-09-15T08:13:02.120Z,20.54
2018-09-15T08:14:01.867Z,20.49
2018-09-15T08:15:01.850Z,20.47
2018-09-15T08:16:01.946Z,20.46
2018-09-15T08:17:01.970Z,20.43
2018-09-15T08:18:01.796Z,20.41
2018-09-15T08:19:02.026Z,20.41
2018-09-15T08:20:01.914Z,20.41
2018-09-15T08:21:01.736Z,20.38
2018-09-15T08:22:02.012Z,20.36
2018-09-15T08:23:01.930Z,20.36
2018-09-15T08:24:01.900Z,20.37
2018-09-15T08:25:01.877Z,20.3
2018-09-15T08:26:02.184Z,20.33
2018-09-15T08:27:01.830Z,20.31
2018-09-15T08:28:02.037Z,20.28
2018-09-15T08:29:01.789Z,20.3
2018-09-15T08:30:01.940Z,20.32
2018-09-15T08:31:01.895Z,20.3
2018-09-15T08:32:02.516Z,20.32
2018-09-15T08:33:01.810Z,20.3
2018-09-15T08:34:01.902Z,20.28
2018-09-15T08:35:02.251Z,20.27
2018-09-15T08:36:02.121Z,20.28
2018-09-15T08:37:01.863Z,20.29
2018-09-15T08:38:01.818Z,20.3
2018-09-15T08:39:01.939Z,20.28
2018-09-15T08:40:02.226Z,20.26
2018-09-15T08:41:01.973Z,20.24
2018-09-15T08:42:01.755Z,20.27
2018-09-15T08:43:01.997Z,20.29
2018-09-15T08:44:01.733Z,20.25
2018-09-15T08:45:02.032Z,20.25
2018-09-15T08:46:01.838Z,20.25
2018-09-15T08:47:02.096Z,20.27
2018-09-15T08:48:01.941Z,20.24
2018-09-15T08:49:01.913Z,20.25
2018-09-15T08:50:01.932Z,20.26
2018-09-15T08:51:02.056Z,20.24
2018-09-15T08:52:01.803Z,20.27
2018-09-15T08:53:01.961Z,20.28
2018-09-15T08:54:02.326Z,20.25
2018-09-15T08:55:02.131Z,20.25
2018-09-15T08:56:02.332Z,20.24
2018-09-15T08:57:01.838Z,20.26
2018-09-15T08:58:01.777Z,20.26
2018-09-15T08:59:02.030Z,20.26
2018-09-15T09:00:01.853Z,20.24
2018-09-15T09:01:01.989Z,20.23
2018-09-15T09:02:01.957Z,20.24
2018-09-15T09:03:01.979Z,20.26
2018-09-15T09:04:01.969Z,20.25
2018-09-15T09:05:01.875Z,20.29
2018-09-15T09:06:02.271Z,20.29
2018-09-15T09:07:01.846Z,20.27
2018-09-15T09:08:01.875Z,20.27
2018-09-15T09:09:01.923Z,20.28
2018-09-15T09:10:01.882Z,20.3
2018-09-15T09:11:02.337Z,20.28
2018-09-15T09:12:01.714Z,20.28
2018-09-15T09:13:01.796Z,20.27
2018-09-15T09:14:01.881Z,20.29
2018-09-15T09:15:01.988Z,20.29
2018-09-15T09:16:01.944Z,20.29
2018-09-15T09:17:01.909Z,20.29
2018-09-15T09:18:01.993Z,20.3
2018-09-15T09:19:01.984Z,20.3
2018-09-15T09:20:02.878Z,20.28
2018-09-15T09:21:01.835Z,20.27
2018-09-15T09:22:01.965Z,20.29
2018-09-15T09:23:01.874Z,20.33
2018-09-15T09:24:01.715Z,20.33
2018-09-15T09:25:01.908Z,20.36
2018-09-15T09:26:02.726Z,20.38
2018-09-15T09:27:01.752Z,20.36
2018-09-15T09:28:01.839Z,20.36
2018-09-15T09:29:01.834Z,20.35
2018-09-15T09:30:01.927Z,20.35
2018-09-15T09:31:01.838Z,20.36
2018-09-15T09:32:01.852Z,20.34
2018-09-15T09:33:01.833Z,20.33
2018-09-15T09:34:01.706Z,20.34
2018-09-15T09:35:01.828Z,20.31
2018-09-15T09:36:01.818Z,20.32
2018-09-15T09:37:01.871Z,20.33
2018-09-15T09:38:01.886Z,20.32
2018-09-15T09:39:02.028Z,20.33
2018-09-15T09:40:02.113Z,20.33
2018-09-15T09:41:01.932Z,20.35
2018-09-15T09:42:01.927Z,20.35
2018-09-15T09:43:01.949Z,20.39
2018-09-15T09:44:01.740Z,20.4
2018-09-15T09:45:01.920Z,20.39
2018-09-15T09:46:02.347Z,20.39
2018-09-15T09:47:01.952Z,20.4
2018-09-15T09:48:03.091Z,20.39
2018-09-15T09:49:01.826Z,20.4
2018-09-15T09:50:01.865Z,20.39
2018-09-15T09:51:02.232Z,20.39
2018-09-15T09:52:01.788Z,20.41
2018-09-15T09:53:01.842Z,20.44
2018-09-15T09:54:01.845Z,20.43
2018-09-15T09:55:01.949Z,20.44
2018-09-15T09:56:01.955Z,20.43
2018-09-15T09:57:01.867Z,20.45
2018-09-15T09:58:01.859Z,20.45
2018-09-15T09:59:01.909Z,20.45
2018-09-15T10:00:01.883Z,20.46
2018-09-15T10:01:02.099Z,20.47
2018-09-15T10:02:01.859Z,20.44
2018-09-15T10:03:01.873Z,20.44
2018-09-15T10:04:02.041Z,20.42
2018-09-15T10:05:01.868Z,20.44
2018-09-15T10:06:01.864Z,20.44
2018-09-15T10:07:02.164Z,20.45
2018-09-15T10:08:01.977Z,20.44
2018-09-15T10:09:02.185Z,20.43
2018-09-15T10:10:01.856Z,20.43
2018-09-15T10:11:01.926Z,20.41
2018-09-15T10:12:01.925Z,20.43
2018-09-15T10:13:02.036Z,20.47
2018-09-15T10:14:01.918Z,20.51
2018-09-15T10:15:01.957Z,20.55
2018-09-15T10:16:02.855Z,20.56
2018-09-15T10:17:02.156Z,20.59
2018-09-15T10:18:02.014Z,20.6
2018-09-15T10:19:02.031Z,20.62
2018-09-15T10:20:01.979Z,20.64
2018-09-15T10:21:01.835Z,20.66
2018-09-15T10:22:01.819Z,20.65
2018-09-15T10:23:02.607Z,20.66
2018-09-15T10:24:01.755Z,20.65
2018-09-15T10:25:04.150Z,20.66
2018-09-15T10:26:01.906Z,20.71
2018-09-15T10:27:03.148Z,20.71
2018-09-15T10:28:01.816Z,20.75
2018-09-15T10:29:01.973Z,20.76
2018-09-15T10:30:01.849Z,20.78
2018-09-15T10:31:01.795Z,20.79
2018-09-15T10:32:02.433Z,20.8
2018-09-15T10:33:01.682Z,20.82
2018-09-15T10:34:01.769Z,20.83
2018-09-15T10:35:01.714Z,20.83
2018-09-15T10:36:01.977Z,20.84
2018-09-15T10:37:01.917Z,20.86
2018-09-15T10:38:02.252Z,20.87
2018-09-15T10:39:01.844Z,20.88
2018-09-15T10:40:01.964Z,20.85
2018-09-15T10:41:01.986Z,20.84
2018-09-15T10:42:02.021Z,20.84
2018-09-15T10:43:02.038Z,20.85
2018-09-15T10:44:02.113Z,20.85
2018-09-15T10:45:01.847Z,20.87
2018-09-15T10:46:02.515Z,20.87
2018-09-15T10:47:01.725Z,20.88
2018-09-15T10:48:01.961Z,20.88
2018-09-15T10:49:01.851Z,20.89
2018-09-15T10:50:01.820Z,20.89
2018-09-15T10:51:01.882Z,20.89
2018-09-15T10:52:01.933Z,20.89
2018-09-15T10:53:01.810Z,20.89
2018-09-15T10:54:01.964Z,20.89
2018-09-15T10:55:01.868Z,20.9
2018-09-15T10:56:01.732Z,20.9
2018-09-15T10:57:01.818Z,20.89
2018-09-15T10:58:01.815Z,20.9
2018-09-15T10:59:01.768Z,20.9
2018-09-15T11:00:01.895Z,20.9
2018-09-15T11:01:01.895Z,20.9
2018-09-15T11:02:02.074Z,20.89
2018-09-15T11:03:01.942Z,20.89
2018-09-15T11:04:01.826Z,20.9
2018-09-15T11:05:01.817Z,20.89
2018-09-15T11:06:02.011Z,20.91
2018-09-15T11:07:02.183Z,20.92
2018-09-15T11:08:02.156Z,20.92
2018-09-15T11:09:01.834Z,20.91
2018-09-15T11:10:01.824Z,20.9
2018-09-15T11:11:01.813Z,20.89
2018-09-15T11:12:02.032Z,20.87
2018-09-15T11:13:01.828Z,20.86
2018-09-15T11:14:01.787Z,20.85
2018-09-15T11:15:01.947Z,20.84
2018-09-15T11:16:02.052Z,20.84
2018-09-15T11:17:03.264Z,20.83
2018-09-15T11:18:01.625Z,20.83
2018-09-15T11:19:01.939Z,20.83
2018-09-15T11:20:02.071Z,20.83
2018-09-15T11:21:02.166Z,20.83
2018-09-15T11:22:01.716Z,20.83
2018-09-15T11:23:01.955Z,20.82
2018-09-15T11:24:01.818Z,20.83
2018-09-15T11:25:01.981Z,20.83
2018-09-15T11:26:02.146Z,20.82
2018-09-15T11:27:01.881Z,20.82
2018-09-15T11:28:03.099Z,20.82
2018-09-15T11:29:02.411Z,20.82
2018-09-15T11:30:01.864Z,20.82
2018-09-15T11:31:02.070Z,20.82
2018-09-15T11:32:01.636Z,20.81
2018-09-15T11:33:01.711Z,20.81
2018-09-15T11:34:02.500Z,20.81
2018-09-15T11:35:01.963Z,20.82
2018-09-15T11:36:01.773Z,20.82
2018-09-15T11:37:01.985Z,20.81
2018-09-15T11:38:01.964Z,20.81
2018-09-15T11:39:01.975Z,20.82
2018-09-15T11:40:01.991Z,20.82
2018-09-15T11:41:02.390Z,20.81
2018-09-15T11:42:01.941Z,20.81
2018-09-15T11:43:01.816Z,20.81
2018-09-15T11:44:01.779Z,20.81
2018-09-15T11:45:01.903Z,20.81
2018-09-15T11:46:02.162Z,20.81
2018-09-15T11:47:01.885Z,20.81
2018-09-15T11:48:02.752Z,20.81
2018-09-15T11:49:02.111Z,20.81
2018-09-15T11:50:01.629Z,20.8
2018-09-15T11:51:02.085Z,20.8
2018-09-15T11:52:01.894Z,20.81
2018-09-15T11:53:01.716Z,20.81
2018-09-15T11:54:01.760Z,20.81
2018-09-15T11:55:01.711Z,20.81
2018-09-15T11:56:02.268Z,20.8
2018-09-15T11:57:01.732Z,20.8
2018-09-15T11:58:01.772Z,20.81
2018-09-15T11:59:01.848Z,20.81
2018-09-15T12:00:02.380Z,20.81
2018-09-15T12:01:01.949Z,20.8
2018-09-15T12:02:02.696Z,20.81
2018-09-15T12:03:01.907Z,20.8
2018-09-15T12:04:01.811Z,20.81
2018-09-15T12:05:01.844Z,20.8
2018-09-15T12:06:01.751Z,20.8
2018-09-15T12:07:01.871Z,20.8
2018-09-15T12:08:01.729Z,20.8
2018-09-15T12:09:01.762Z,20.81
2018-09-15T12:10:01.879Z,20.8
2018-09-15T12:11:01.866Z,20.8
2018-09-15T12:12:01.950Z,20.79
2018-09-15T12:13:02.074Z,20.8
2018-09-15T12:14:02.176Z,20.8
2018-09-15T12:15:01.861Z,20.8
2018-09-15T12:16:01.848Z,20.8
2018-09-15T12:17:01.896Z,20.8
2018-09-15T12:18:01.834Z,20.8
2018-09-15T12:19:01.970Z,20.81
2018-09-15T12:20:01.747Z,20.83
2018-09-15T12:21:01.783Z,20.84
2018-09-15T12:22:01.800Z,20.87
2018-09-15T12:23:01.668Z,20.9
2018-09-15T12:24:01.810Z,20.92
2018-09-15T12:25:01.847Z,20.95
2018-09-15T12:26:02.125Z,20.95
2018-09-15T12:27:02.068Z,20.96
2018-09-15T12:28:02.037Z,20.97
2018-09-15T12:29:01.833Z,20.99
2018-09-15T12:30:02.016Z,20.99
2018-09-15T12:31:02.143Z,20.99
2018-09-15T12:32:01.920Z,21.01
2018-09-15T12:33:02.132Z,21.01
2018-09-15T12:34:02.126Z,21.01
2018-09-15T12:35:01.797Z,21.02
2018-09-15T12:36:02.090Z,21.03
2018-09-15T12:36:58.871Z,21.13
2018-09-15T12:37:58.956Z,21.24
2018-09-15T12:38:59.325Z,21.16
2018-09-15T12:39:58.779Z,21.14
2018-09-15T12:40:58.738Z,21.14
2018-09-15T12:41:58.812Z,21.15
2018-09-15T12:42:59.118Z,21.16
2018-09-15T12:43:25.084Z,21.17
2018-09-15T12:44:24.996Z,21.19
2018-09-15T12:45:24.971Z,21.2
2018-09-15T12:46:09.670Z,21.2
2018-09-15T12:47:09.789Z,21.21
2018-09-15T12:48:09.811Z,21.22
2018-09-15T12:49:16.033Z,21.22
2018-09-15T12:50:16.312Z,21.16
2018-09-15T12:51:16.316Z,21.14
2018-09-15T12:52:16.711Z,21.12
2018-09-15T12:53:16.097Z,21.11
2018-09-15T12:54:16.519Z,21.09
2018-09-15T12:55:16.261Z,21.07
2018-09-15T12:56:16.227Z,21.07